sensor_id;sensor_type;location;lat;lon;timestamp;pressure;altitude;pressure_sealevel;temperature;humidity
11648;BME280;5880;52.342;9.662;2024-01-15T00:02:06;99101.16;;;6.17;63.51
11648;BME280;5880;52.342;9.662;2024-01-15T00:04:37;99116.63;;;6.16;64.20
11648;BME280;5880;52.342;9.662;2024-01-15T00:07:04;99119.94;;;6.18;63.95
11648;BME280;5880;52.342;9.662;2024-01-15T00:09:30;99099.16;;;6.12;64.16
11648;BME280;5880;52.342;9.662;2024-01-15T00:11:55;99107.63;;;6.16;64.11
11648;BME280;5880;52.342;9.662;2024-01-15T00:14:22;99089.22;;;6.18;63.75
11648;BME280;5880;52.342;9.662;2024-01-15T00:16:48;99086.44;;;6.12;64.06
11648;BME280;5880;52.342;9.662;2024-01-15T00:19:16;99106.34;;;6.18;63.74
11648;BME280;5880;52.342;9.662;2024-01-15T00:21:41;99077.47;;;6.12;63.65
11648;BME280;5880;52.342;9.662;2024-01-15T00:24:08;99078.28;;;6.12;63.74
11648;BME280;5880;52.342;9.662;2024-01-15T00:26:33;99099.75;;;6.14;63.86
11648;BME280;5880;52.342;9.662;2024-01-15T00:28:59;99091.84;;;6.12;63.69
11648;BME280;5880;52.342;9.662;2024-01-15T00:31:25;99095.97;;;6.15;63.80
11648;BME280;5880;52.342;9.662;2024-01-15T00:33:51;99080.31;;;6.05;63.54
11648;BME280;5880;52.342;9.662;2024-01-15T00:36:16;99091.53;;;6.09;63.65
11648;BME280;5880;52.342;9.662;2024-01-15T00:38:44;99089.03;;;6.07;63.69
11648;BME280;5880;52.342;9.662;2024-01-15T00:41:09;99084.69;;;6.06;63.69
11648;BME280;5880;52.342;9.662;2024-01-15T00:43:35;99073.00;;;6.06;64.16
11648;BME280;5880;52.342;9.662;2024-01-15T00:46:05;99065.72;;;6.06;63.99
11648;BME280;5880;52.342;9.662;2024-01-15T00:48:31;99064.53;;;6.02;63.68
11648;BME280;5880;52.342;9.662;2024-01-15T00:50:56;99070.19;;;6.01;63.55
11648;BME280;5880;52.342;9.662;2024-01-15T00:53:22;99067.16;;;5.97;63.84
11648;BME280;5880;52.342;9.662;2024-01-15T00:55:48;99073.13;;;5.99;63.32
11648;BME280;5880;52.342;9.662;2024-01-15T00:58:14;99073.13;;;5.99;63.86
11648;BME280;5880;52.342;9.662;2024-01-15T01:00:40;99059.00;;;5.97;63.71
11648;BME280;5880;52.342;9.662;2024-01-15T01:03:06;99056.03;;;5.99;63.87
11648;BME280;5880;52.342;9.662;2024-01-15T01:05:33;99049.06;;;6.03;63.62
11648;BME280;5880;52.342;9.662;2024-01-15T01:07:59;99056.41;;;6.02;63.49
11648;BME280;5880;52.342;9.662;2024-01-15T01:10:24;99061.81;;;6.02;63.71
11648;BME280;5880;52.342;9.662;2024-01-15T01:12:50;99052.03;;;6.01;63.64
11648;BME280;5880;52.342;9.662;2024-01-15T01:15:15;99061.22;;;6.00;63.53
11648;BME280;5880;52.342;9.662;2024-01-15T01:17:41;99054.13;;;5.99;63.10
11648;BME280;5880;52.342;9.662;2024-01-15T01:20:07;99051.91;;;5.96;63.44
11648;BME280;5880;52.342;9.662;2024-01-15T01:22:35;99064.91;;;5.94;63.52
11648;BME280;5880;52.342;9.662;2024-01-15T01:25:01;99050.47;;;5.93;63.25
11648;BME280;5880;52.342;9.662;2024-01-15T01:27:27;99035.16;;;5.87;63.20
11648;BME280;5880;52.342;9.662;2024-01-15T01:29:52;99038.22;;;5.91;63.40
11648;BME280;5880;52.342;9.662;2024-01-15T01:32:18;99037.41;;;5.90;63.74
11648;BME280;5880;52.342;9.662;2024-01-15T01:34:44;99032.00;;;5.90;63.16
11648;BME280;5880;52.342;9.662;2024-01-15T01:37:10;99032.44;;;5.87;63.37
11648;BME280;5880;52.342;9.662;2024-01-15T01:39:41;99028.34;;;5.85;63.34
11648;BME280;5880;52.342;9.662;2024-01-15T01:42:06;99019.97;;;5.86;63.36
11648;BME280;5880;52.342;9.662;2024-01-15T01:44:32;99030.22;;;5.84;63.70
11648;BME280;5880;52.342;9.662;2024-01-15T01:46:59;99030.22;;;5.84;63.61
11648;BME280;5880;52.342;9.662;2024-01-15T01:49:26;99032.44;;;5.87;63.59
11648;BME280;5880;52.342;9.662;2024-01-15T01:51:55;99014.78;;;5.85;63.91
11648;BME280;5880;52.342;9.662;2024-01-15T01:54:21;99009.03;;;5.81;63.93
11648;BME280;5880;52.342;9.662;2024-01-15T01:56:48;99006.66;;;5.85;63.84
11648;BME280;5880;52.342;9.662;2024-01-15T01:59:15;99011.25;;;5.84;63.75
11648;BME280;5880;52.342;9.662;2024-01-15T02:01:41;99010.19;;;5.85;63.98
11648;BME280;5880;52.342;9.662;2024-01-15T02:04:08;99006.41;;;5.86;63.56
11648;BME280;5880;52.342;9.662;2024-01-15T02:06:34;99020.47;;;5.83;63.99
11648;BME280;5880;52.342;9.662;2024-01-15T02:09:00;99013.59;;;5.92;64.50
11648;BME280;5880;52.342;9.662;2024-01-15T02:11:26;99013.13;;;5.96;64.23
11648;BME280;5880;52.342;9.662;2024-01-15T02:13:52;99005.31;;;5.99;64.02
11648;BME280;5880;52.342;9.662;2024-01-15T02:16:17;99015.72;;;6.02;63.89
11648;BME280;5880;52.342;9.662;2024-01-15T02:18:45;99002.47;;;6.06;64.06
11648;BME280;5880;52.342;9.662;2024-01-15T02:21:12;99000.34;;;6.08;64.09
11648;BME280;5880;52.342;9.662;2024-01-15T02:23:38;99009.44;;;6.13;64.02
11648;BME280;5880;52.342;9.662;2024-01-15T02:26:08;98998.31;;;6.15;63.91
11648;BME280;5880;52.342;9.662;2024-01-15T02:28:34;99007.84;;;6.18;64.00
11648;BME280;5880;52.342;9.662;2024-01-15T02:31:00;98996.19;;;6.17;64.37
11648;BME280;5880;52.342;9.662;2024-01-15T02:33:26;99009.50;;;6.19;63.97
11648;BME280;5880;52.342;9.662;2024-01-15T02:35:52;99011.16;;;6.20;63.74
11648;BME280;5880;52.342;9.662;2024-01-15T02:38:17;98999.56;;;6.24;63.64
11648;BME280;5880;52.342;9.662;2024-01-15T02:40:46;99010.78;;;6.28;63.61
11648;BME280;5880;52.342;9.662;2024-01-15T02:43:12;98993.56;;;6.22;63.84
11648;BME280;5880;52.342;9.662;2024-01-15T02:45:39;98993.19;;;6.30;63.71
11648;BME280;5880;52.342;9.662;2024-01-15T02:48:05;99002.13;;;6.31;64.17
11648;BME280;5880;52.342;9.662;2024-01-15T02:50:31;99005.44;;;6.33;63.50
11648;BME280;5880;52.342;9.662;2024-01-15T02:52:56;99010.03;;;6.32;63.99
11648;BME280;5880;52.342;9.662;2024-01-15T02:55:22;99008.16;;;6.33;63.67
11648;BME280;5880;52.342;9.662;2024-01-15T02:57:48;98996.72;;;6.31;63.64
11648;BME280;5880;52.342;9.662;2024-01-15T03:00:14;99006.75;;;6.30;63.62
11648;BME280;5880;52.342;9.662;2024-01-15T03:02:40;99006.47;;;6.32;63.63
11648;BME280;5880;52.342;9.662;2024-01-15T03:05:09;98992.00;;;6.26;63.69
11648;BME280;5880;52.342;9.662;2024-01-15T03:07:35;98986.66;;;6.31;63.16
11648;BME280;5880;52.342;9.662;2024-01-15T03:10:01;98982.06;;;6.32;63.68
11648;BME280;5880;52.342;9.662;2024-01-15T03:12:27;98986.59;;;6.26;63.36
11648;BME280;5880;52.342;9.662;2024-01-15T03:14:53;98989.31;;;6.26;63.22
11648;BME280;5880;52.342;9.662;2024-01-15T03:17:19;98987.66;;;6.25;63.71
11648;BME280;5880;52.342;9.662;2024-01-15T03:19:44;98992.50;;;6.23;63.33
11648;BME280;5880;52.342;9.662;2024-01-15T03:22:10;98989.22;;;6.21;63.44
11648;BME280;5880;52.342;9.662;2024-01-15T03:24:36;98986.72;;;6.20;63.51
11648;BME280;5880;52.342;9.662;2024-01-15T03:27:02;98989.44;;;6.20;63.16
11648;BME280;5880;52.342;9.662;2024-01-15T03:29:28;98992.50;;;6.23;63.38
11648;BME280;5880;52.342;9.662;2024-01-15T03:31:53;98993.56;;;6.22;63.62
11648;BME280;5880;52.342;9.662;2024-01-15T03:34:19;98989.78;;;6.23;63.65
11648;BME280;5880;52.342;9.662;2024-01-15T03:36:45;98981.16;;;6.26;63.69
11648;BME280;5880;52.342;9.662;2024-01-15T03:39:11;98979.25;;;6.27;63.50
11648;BME280;5880;52.342;9.662;2024-01-15T03:41:36;98984.22;;;6.30;63.91
11648;BME280;5880;52.342;9.662;2024-01-15T03:44:02;99006.41;;;6.27;63.27
11648;BME280;5880;52.342;9.662;2024-01-15T03:46:28;98992.59;;;6.28;63.46
11648;BME280;5880;52.342;9.662;2024-01-15T03:48:54;98996.94;;;6.29;63.50
11648;BME280;5880;52.342;9.662;2024-01-15T03:51:20;99017.34;;;6.32;63.36
11648;BME280;5880;52.342;9.662;2024-01-15T03:53:46;99008.38;;;6.31;63.66
11648;BME280;5880;52.342;9.662;2024-01-15T03:56:12;99008.38;;;6.31;63.38
11648;BME280;5880;52.342;9.662;2024-01-15T03:58:38;99016.06;;;6.34;63.65
11648;BME280;5880;52.342;9.662;2024-01-15T04:01:03;99007.06;;;6.34;63.62
11648;BME280;5880;52.342;9.662;2024-01-15T04:03:32;99009.78;;;6.34;63.54
11648;BME280;5880;52.342;9.662;2024-01-15T04:05:58;99019.31;;;6.37;63.64
11648;BME280;5880;52.342;9.662;2024-01-15T04:08:24;99013.44;;;6.40;63.71
11648;BME280;5880;52.342;9.662;2024-01-15T04:10:49;99011.53;;;6.40;63.26
11648;BME280;5880;52.342;9.662;2024-01-15T04:13:15;98997.72;;;6.42;63.68
11648;BME280;5880;52.342;9.662;2024-01-15T04:15:41;99006.69;;;6.42;63.63
11648;BME280;5880;52.342;9.662;2024-01-15T04:18:06;99007.19;;;6.39;63.48
11648;BME280;5880;52.342;9.662;2024-01-15T04:20:32;98999.84;;;6.40;63.25
11648;BME280;5880;52.342;9.662;2024-01-15T04:22:57;99006.34;;;6.39;63.18
11648;BME280;5880;52.342;9.662;2024-01-15T04:25:23;98993.25;;;6.36;63.13
11648;BME280;5880;52.342;9.662;2024-01-15T04:27:49;98992.19;;;6.37;63.56
11648;BME280;5880;52.342;9.662;2024-01-15T04:30:14;98998.19;;;6.39;63.23
11648;BME280;5880;52.342;9.662;2024-01-15T04:32:40;98985.13;;;6.36;63.47
11648;BME280;5880;52.342;9.662;2024-01-15T04:35:06;98979.13;;;6.33;63.32
11648;BME280;5880;52.342;9.662;2024-01-15T04:37:32;98987.47;;;6.32;63.23
11648;BME280;5880;52.342;9.662;2024-01-15T04:39:58;98997.38;;;6.38;63.22
11648;BME280;5880;52.342;9.662;2024-01-15T04:42:23;99002.81;;;6.38;63.52
11648;BME280;5880;52.342;9.662;2024-01-15T04:44:49;99000.31;;;6.37;63.47
11648;BME280;5880;52.342;9.662;2024-01-15T04:47:15;99004.69;;;6.38;63.33
11648;BME280;5880;52.342;9.662;2024-01-15T04:49:41;99007.19;;;6.39;63.01
11648;BME280;5880;52.342;9.662;2024-01-15T04:52:06;99006.91;;;6.41;63.24
11648;BME280;5880;52.342;9.662;2024-01-15T04:54:32;99000.66;;;6.40;63.33
11648;BME280;5880;52.342;9.662;2024-01-15T04:56:58;99008.31;;;6.43;63.20
11648;BME280;5880;52.342;9.662;2024-01-15T04:59:23;98992.84;;;6.44;63.31
11648;BME280;5880;52.342;9.662;2024-01-15T05:01:49;98992.63;;;6.45;63.18
11648;BME280;5880;52.342;9.662;2024-01-15T05:04:15;98976.84;;;6.42;63.81
11648;BME280;5880;52.342;9.662;2024-01-15T05:06:41;98982.34;;;6.47;63.47
11648;BME280;5880;52.342;9.662;2024-01-15T05:09:06;98989.41;;;6.48;63.56
11648;BME280;5880;52.342;9.662;2024-01-15T05:11:32;98983.88;;;6.43;63.52
11648;BME280;5880;52.342;9.662;2024-01-15T05:13:58;98981.53;;;6.47;63.08
11648;BME280;5880;52.342;9.662;2024-01-15T05:16:24;98974.34;;;6.41;63.03
11648;BME280;5880;52.342;9.662;2024-01-15T05:18:49;98970.31;;;6.43;63.25
11648;BME280;5880;52.342;9.662;2024-01-15T05:21:15;98971.13;;;6.44;62.79
11648;BME280;5880;52.342;9.662;2024-01-15T05:23:41;98972.22;;;6.43;62.69
11648;BME280;5880;52.342;9.662;2024-01-15T05:26:06;98981.69;;;6.40;62.64
11648;BME280;5880;52.342;9.662;2024-01-15T05:28:34;98974.03;;;6.37;62.33
11648;BME280;5880;52.342;9.662;2024-01-15T05:31:01;98967.44;;;6.33;62.73
11648;BME280;5880;52.342;9.662;2024-01-15T05:33:26;98966.63;;;6.32;63.00
11648;BME280;5880;52.342;9.662;2024-01-15T05:35:52;98966.28;;;6.29;62.98
11648;BME280;5880;52.342;9.662;2024-01-15T05:38:19;98969.13;;;6.22;62.79
11648;BME280;5880;52.342;9.662;2024-01-15T05:40:45;98977.03;;;6.24;62.60
11648;BME280;5880;52.342;9.662;2024-01-15T05:43:10;98964.22;;;6.19;63.28
11648;BME280;5880;52.342;9.662;2024-01-15T05:45:38;98972.44;;;6.24;63.11
11648;BME280;5880;52.342;9.662;2024-01-15T05:48:04;98965.38;;;6.23;62.84
11648;BME280;5880;52.342;9.662;2024-01-15T05:50:30;98970.81;;;6.23;62.70
11648;BME280;5880;52.342;9.662;2024-01-15T05:52:55;98955.25;;;6.19;63.04
11648;BME280;5880;52.342;9.662;2024-01-15T05:55:21;98969.13;;;6.22;63.54
11648;BME280;5880;52.342;9.662;2024-01-15T05:57:47;98969.72;;;6.24;63.61
11648;BME280;5880;52.342;9.662;2024-01-15T06:00:13;98968.41;;;6.27;63.38
11648;BME280;5880;52.342;9.662;2024-01-15T06:02:39;98969.50;;;6.26;63.17
11648;BME280;5880;52.342;9.662;2024-01-15T06:05:06;98972.53;;;6.29;62.79
11648;BME280;5880;52.342;9.662;2024-01-15T06:07:34;98975.22;;;6.29;63.00
11648;BME280;5880;52.342;9.662;2024-01-15T06:10:00;98969.00;;;6.29;63.16
11648;BME280;5880;52.342;9.662;2024-01-15T06:12:25;98970.66;;;6.30;62.98
11648;BME280;5880;52.342;9.662;2024-01-15T06:14:53;98964.16;;;6.31;63.23
11648;BME280;5880;52.342;9.662;2024-01-15T06:17:18;98965.22;;;6.30;62.88
11648;BME280;5880;52.342;9.662;2024-01-15T06:19:44;98971.47;;;6.30;63.32
11648;BME280;5880;52.342;9.662;2024-01-15T06:22:10;98978.78;;;6.30;62.66
11648;BME280;5880;52.342;9.662;2024-01-15T06:24:35;98981.25;;;6.31;63.28
11648;BME280;5880;52.342;9.662;2024-01-15T06:27:01;98958.63;;;6.26;62.88
11648;BME280;5880;52.342;9.662;2024-01-15T06:29:27;98975.81;;;6.31;63.35
11648;BME280;5880;52.342;9.662;2024-01-15T06:31:53;98967.69;;;6.31;62.91
11648;BME280;5880;52.342;9.662;2024-01-15T06:34:19;98983.88;;;6.26;62.70
11648;BME280;5880;52.342;9.662;2024-01-15T06:36:44;98980.34;;;6.26;62.74
11648;BME280;5880;52.342;9.662;2024-01-15T06:39:10;98984.09;;;6.25;63.03
11648;BME280;5880;52.342;9.662;2024-01-15T06:41:36;98983.78;;;6.21;63.35
11648;BME280;5880;52.342;9.662;2024-01-15T06:44:10;98973.50;;;6.23;63.38
11648;BME280;5880;52.342;9.662;2024-01-15T06:46:36;98979.75;;;6.24;62.98
11648;BME280;5880;52.342;9.662;2024-01-15T06:49:02;98981.66;;;6.23;63.02
11648;BME280;5880;52.342;9.662;2024-01-15T06:51:29;98981.66;;;6.23;63.08
11648;BME280;5880;52.342;9.662;2024-01-15T06:53:55;98984.59;;;6.22;62.93
11648;BME280;5880;52.342;9.662;2024-01-15T06:56:20;98990.84;;;6.22;63.10
11648;BME280;5880;52.342;9.662;2024-01-15T06:58:46;98978.69;;;6.25;62.84
11648;BME280;5880;52.342;9.662;2024-01-15T07:01:11;98984.09;;;6.25;62.90
11648;BME280;5880;52.342;9.662;2024-01-15T07:03:38;98979.53;;;6.25;63.19
11648;BME280;5880;52.342;9.662;2024-01-15T07:06:04;98989.31;;;6.26;63.12
11648;BME280;5880;52.342;9.662;2024-01-15T07:08:29;98999.91;;;6.28;63.72
11648;BME280;5880;52.342;9.662;2024-01-15T07:10:55;98984.44;;;6.28;62.79
11648;BME280;5880;52.342;9.662;2024-01-15T07:13:21;98984.94;;;6.25;63.49
11648;BME280;5880;52.342;9.662;2024-01-15T07:15:46;98987.41;;;6.27;63.08
11648;BME280;5880;52.342;9.662;2024-01-15T07:18:12;98993.19;;;6.30;63.28
11648;BME280;5880;52.342;9.662;2024-01-15T07:20:38;98995.63;;;6.32;63.19
11648;BME280;5880;52.342;9.662;2024-01-15T07:23:04;98989.97;;;6.33;63.03
11648;BME280;5880;52.342;9.662;2024-01-15T07:25:29;99001.63;;;6.34;62.90
11648;BME280;5880;52.342;9.662;2024-01-15T07:27:55;98994.56;;;6.33;63.09
11648;BME280;5880;52.342;9.662;2024-01-15T07:30:21;99002.94;;;6.31;63.27
11648;BME280;5880;52.342;9.662;2024-01-15T07:32:47;98995.06;;;6.30;62.85
11648;BME280;5880;52.342;9.662;2024-01-15T07:35:15;98997.78;;;6.30;63.40
11648;BME280;5880;52.342;9.662;2024-01-15T07:37:41;99003.44;;;6.28;63.18
11648;BME280;5880;52.342;9.662;2024-01-15T07:40:07;99002.88;;;6.26;62.83
11648;BME280;5880;52.342;9.662;2024-01-15T07:42:34;98993.41;;;6.29;63.34
11648;BME280;5880;52.342;9.662;2024-01-15T07:45:00;99000.72;;;6.28;63.19
11648;BME280;5880;52.342;9.662;2024-01-15T07:47:26;99002.88;;;6.26;63.20
11648;BME280;5880;52.342;9.662;2024-01-15T07:49:53;99008.06;;;6.28;63.17
11648;BME280;5880;52.342;9.662;2024-01-15T07:52:19;99006.66;;;6.25;63.08
11648;BME280;5880;52.342;9.662;2024-01-15T07:54:46;98999.56;;;6.24;62.70
11648;BME280;5880;52.342;9.662;2024-01-15T07:57:12;99000.88;;;6.22;63.33
11648;BME280;5880;52.342;9.662;2024-01-15T07:59:37;99004.66;;;6.21;63.42
11648;BME280;5880;52.342;9.662;2024-01-15T08:02:03;98999.47;;;6.19;62.83
11648;BME280;5880;52.342;9.662;2024-01-15T08:04:29;99002.91;;;6.15;63.04
11648;BME280;5880;52.342;9.662;2024-01-15T08:06:55;99006.22;;;6.17;63.32
11648;BME280;5880;52.342;9.662;2024-01-15T08:09:22;99008.13;;;6.16;63.00
11648;BME280;5880;52.342;9.662;2024-01-15T08:11:48;99017.56;;;6.13;62.96
11648;BME280;5880;52.342;9.662;2024-01-15T08:14:14;99019.91;;;6.10;62.64
11648;BME280;5880;52.342;9.662;2024-01-15T08:16:40;99014.19;;;6.06;62.87
11648;BME280;5880;52.342;9.662;2024-01-15T08:19:06;99010.88;;;6.04;62.64
11648;BME280;5880;52.342;9.662;2024-01-15T08:21:32;99013.59;;;6.04;63.11
11648;BME280;5880;52.342;9.662;2024-01-15T08:24:00;99013.31;;;6.06;63.09
11648;BME280;5880;52.342;9.662;2024-01-15T08:26:25;99000.50;;;6.01;63.10
11648;BME280;5880;52.342;9.662;2024-01-15T08:28:51;99007.31;;;6.04;62.88
11648;BME280;5880;52.342;9.662;2024-01-15T08:31:17;98999.91;;;5.99;63.04
11648;BME280;5880;52.342;9.662;2024-01-15T08:33:43;99013.81;;;6.03;63.20
11648;BME280;5880;52.342;9.662;2024-01-15T08:36:12;99011.09;;;6.03;63.10
11648;BME280;5880;52.342;9.662;2024-01-15T08:38:38;99012.41;;;6.00;62.94
11648;BME280;5880;52.342;9.662;2024-01-15T08:41:04;99008.03;;;5.99;63.46
11648;BME280;5880;52.342;9.662;2024-01-15T08:43:30;98998.75;;;5.95;63.57
11648;BME280;5880;52.342;9.662;2024-01-15T08:45:58;99018.06;;;5.99;63.19
11648;BME280;5880;52.342;9.662;2024-01-15T08:48:24;99008.88;;;6.00;63.45
11648;BME280;5880;52.342;9.662;2024-01-15T08:50:53;99005.09;;;6.01;63.87
11648;BME280;5880;52.342;9.662;2024-01-15T08:53:19;98998.38;;;6.03;64.11
11648;BME280;5880;52.342;9.662;2024-01-15T08:55:44;99010.38;;;6.07;63.61
11648;BME280;5880;52.342;9.662;2024-01-15T08:58:10;99007.19;;;6.10;64.19
11648;BME280;5880;52.342;9.662;2024-01-15T09:00:36;99014.59;;;6.15;64.33
11648;BME280;5880;52.342;9.662;2024-01-15T09:03:02;99011.16;;;6.20;64.03
11648;BME280;5880;52.342;9.662;2024-01-15T09:05:28;99020.69;;;6.22;64.01
11648;BME280;5880;52.342;9.662;2024-01-15T09:07:54;99018.81;;;6.23;63.42
11648;BME280;5880;52.342;9.662;2024-01-15T09:10:20;99011.16;;;6.20;63.75
11648;BME280;5880;52.342;9.662;2024-01-15T09:12:46;99019.16;;;6.26;64.12
11648;BME280;5880;52.342;9.662;2024-01-15T09:15:12;99019.72;;;6.28;63.51
11648;BME280;5880;52.342;9.662;2024-01-15T09:17:38;99017.59;;;6.30;63.86
11648;BME280;5880;52.342;9.662;2024-01-15T09:20:04;99020.63;;;6.34;63.96
11648;BME280;5880;52.342;9.662;2024-01-15T09:22:31;99025.00;;;6.35;63.76
11648;BME280;5880;52.342;9.662;2024-01-15T09:24:58;99008.16;;;6.33;63.96
11648;BME280;5880;52.342;9.662;2024-01-15T09:27:24;99022.38;;;6.40;64.26
11648;BME280;5880;52.342;9.662;2024-01-15T09:29:52;99032.75;;;6.43;64.28
11648;BME280;5880;52.342;9.662;2024-01-15T09:32:18;99022.69;;;6.44;64.08
11648;BME280;5880;52.342;9.662;2024-01-15T09:34:44;99034.50;;;6.49;63.48
11648;BME280;5880;52.342;9.662;2024-01-15T09:37:12;99039.41;;;6.52;64.17
11648;BME280;5880;52.342;9.662;2024-01-15T09:39:37;99027.50;;;6.53;63.64
11648;BME280;5880;52.342;9.662;2024-01-15T09:42:04;99028.09;;;6.55;64.27
11648;BME280;5880;52.342;9.662;2024-01-15T09:44:31;99022.91;;;6.54;63.80
11648;BME280;5880;52.342;9.662;2024-01-15T09:46:57;99036.31;;;6.61;64.36
11648;BME280;5880;52.342;9.662;2024-01-15T09:49:23;99029.81;;;6.62;63.90
11648;BME280;5880;52.342;9.662;2024-01-15T09:51:49;99025.47;;;6.61;63.96
11648;BME280;5880;52.342;9.662;2024-01-15T09:54:18;99032.28;;;6.63;63.56
11648;BME280;5880;52.342;9.662;2024-01-15T09:56:47;99037.47;;;6.65;63.91
11648;BME280;5880;52.342;9.662;2024-01-15T09:59:16;99045.38;;;6.66;63.65
11648;BME280;5880;52.342;9.662;2024-01-15T10:01:44;99057.53;;;6.64;63.47
11648;BME280;5880;52.342;9.662;2024-01-15T10:04:11;99055.41;;;6.66;63.17
11648;BME280;5880;52.342;9.662;2024-01-15T10:06:44;99061.34;;;6.63;63.02
11648;BME280;5880;52.342;9.662;2024-01-15T10:09:12;99057.78;;;6.62;63.05
11648;BME280;5880;52.342;9.662;2024-01-15T10:11:43;99053.44;;;6.61;62.97
11648;BME280;5880;52.342;9.662;2024-01-15T10:14:10;99051.22;;;6.58;62.88
11648;BME280;5880;52.342;9.662;2024-01-15T10:16:40;99054.75;;;6.59;63.28
11648;BME280;5880;52.342;9.662;2024-01-15T10:19:07;99061.00;;;6.59;63.40
11648;BME280;5880;52.342;9.662;2024-01-15T10:21:33;99051.75;;;6.60;63.30
11648;BME280;5880;52.342;9.662;2024-01-15T10:24:03;99050.22;;;6.64;63.51
11648;BME280;5880;52.342;9.662;2024-01-15T10:26:30;99047.03;;;6.67;63.99
11648;BME280;5880;52.342;9.662;2024-01-15T10:28:56;99049.56;;;6.74;64.22
11648;BME280;5880;52.342;9.662;2024-01-15T10:31:21;99027.94;;;6.79;64.00
11648;BME280;5880;52.342;9.662;2024-01-15T10:33:48;99036.75;;;6.86;64.37
11648;BME280;5880;52.342;9.662;2024-01-15T10:36:16;99037.06;;;6.90;64.17
11648;BME280;5880;52.342;9.662;2024-01-15T10:38:43;99037.72;;;6.97;64.16
11648;BME280;5880;52.342;9.662;2024-01-15T10:41:09;99033.22;;;7.03;63.98
11648;BME280;5880;52.342;9.662;2024-01-15T10:43:35;99036.59;;;7.10;63.83
11648;BME280;5880;52.342;9.662;2024-01-15T10:46:02;99035.56;;;7.16;64.40
11648;BME280;5880;52.342;9.662;2024-01-15T10:48:28;99029.09;;;7.17;64.23
11648;BME280;5880;52.342;9.662;2024-01-15T10:50:59;99042.31;;;7.30;63.99
11648;BME280;5880;52.342;9.662;2024-01-15T10:53:26;99044.53;;;7.33;64.00
11648;BME280;5880;52.342;9.662;2024-01-15T10:55:53;99034.81;;;7.37;64.08
11648;BME280;5880;52.342;9.662;2024-01-15T10:58:21;99041.09;;;7.38;63.97
11648;BME280;5880;52.342;9.662;2024-01-15T11:00:47;99040.00;;;7.39;63.91
11648;BME280;5880;52.342;9.662;2024-01-15T11:03:14;99031.03;;;7.38;63.22
11648;BME280;5880;52.342;9.662;2024-01-15T11:05:43;99046.25;;;7.39;62.96
11648;BME280;5880;52.342;9.662;2024-01-15T11:08:09;99049.22;;;7.38;63.46
11648;BME280;5880;52.342;9.662;2024-01-15T11:10:44;99032.09;;;7.37;63.25
11648;BME280;5880;52.342;9.662;2024-01-15T11:13:19;99020.91;;;7.34;63.38
11648;BME280;5880;52.342;9.662;2024-01-15T11:15:59;99029.94;;;7.39;63.58
11648;BME280;5880;52.342;9.662;2024-01-15T11:18:41;99029.47;;;7.43;63.81
11648;BME280;5880;52.342;9.662;2024-01-15T11:23:50;99025.47;;;7.50;63.85
11648;BME280;5880;52.342;9.662;2024-01-15T11:26:46;99018.72;;;7.53;64.10
11648;BME280;5880;52.342;9.662;2024-01-15T11:29:31;99029.16;;;7.61;63.58
11648;BME280;5880;52.342;9.662;2024-01-15T11:32:05;99024.28;;;7.63;63.98
11648;BME280;5880;52.342;9.662;2024-01-15T11:34:53;99017.53;;;7.66;63.19
11648;BME280;5880;52.342;9.662;2024-01-15T11:37:21;99020.50;;;7.64;63.38
11648;BME280;5880;52.342;9.662;2024-01-15T11:39:52;99018.84;;;7.63;63.12
11648;BME280;5880;52.342;9.662;2024-01-15T11:42:21;99018.84;;;7.63;62.85
11648;BME280;5880;52.342;9.662;2024-01-15T11:44:47;99012.84;;;7.61;62.86
11648;BME280;5880;52.342;9.662;2024-01-15T11:47:14;99012.00;;;7.60;62.91
11648;BME280;5880;52.342;9.662;2024-01-15T11:52:32;99005.19;;;7.58;62.44
11648;BME280;5880;52.342;9.662;2024-01-15T11:55:11;98999.69;;;7.53;62.29
11648;BME280;5880;52.342;9.662;2024-01-15T11:57:47;99014.94;;;7.54;62.54
11648;BME280;5880;52.342;9.662;2024-01-15T12:00:15;99003.66;;;7.45;63.02
11648;BME280;5880;52.342;9.662;2024-01-15T12:02:45;99008.66;;;7.53;63.16
11648;BME280;5880;52.342;9.662;2024-01-15T12:05:17;99006.78;;;7.54;63.15
11648;BME280;5880;52.342;9.662;2024-01-15T12:07:46;99007.31;;;7.56;63.45
11648;BME280;5880;52.342;9.662;2024-01-15T12:10:20;99009.50;;;7.54;63.16
11648;BME280;5880;52.342;9.662;2024-01-15T12:13:15;99004.13;;;7.59;62.96
11648;BME280;5880;52.342;9.662;2024-01-15T12:15:44;98992.91;;;7.55;62.98
11648;BME280;5880;52.342;9.662;2024-01-15T12:18:14;99003.78;;;7.55;63.10
11648;BME280;5880;52.342;9.662;2024-01-15T12:20:41;99009.22;;;7.55;62.87
11648;BME280;5880;52.342;9.662;2024-01-15T12:23:09;99002.16;;;7.54;62.52
11648;BME280;5880;52.342;9.662;2024-01-15T12:25:39;99008.41;;;7.55;62.61
11648;BME280;5880;52.342;9.662;2024-01-15T12:28:06;99003.22;;;7.53;62.41
11648;BME280;5880;52.342;9.662;2024-01-15T12:30:34;99005.94;;;7.53;62.64
11648;BME280;5880;52.342;9.662;2024-01-15T12:33:05;99017.09;;;7.52;62.34
11648;BME280;5880;52.342;9.662;2024-01-15T12:35:31;99018.66;;;7.48;62.06
11648;BME280;5880;52.342;9.662;2024-01-15T12:37:57;99007.53;;;7.49;62.31
11648;BME280;5880;52.342;9.662;2024-01-15T12:40:23;99010.50;;;7.48;62.11
11648;BME280;5880;52.342;9.662;2024-01-15T12:42:49;99018.88;;;7.46;62.15
11648;BME280;5880;52.342;9.662;2024-01-15T12:45:15;99015.53;;;7.39;61.70
11648;BME280;5880;52.342;9.662;2024-01-15T12:47:41;99006.81;;;7.37;61.79
11648;BME280;5880;52.342;9.662;2024-01-15T12:50:10;99010.03;;;7.34;62.02
11648;BME280;5880;52.342;9.662;2024-01-15T12:52:36;99020.66;;;7.35;62.00
11648;BME280;5880;52.342;9.662;2024-01-15T12:55:05;99026.91;;;7.36;61.86
11648;BME280;5880;52.342;9.662;2024-01-15T12:57:31;99020.09;;;7.33;62.46
11648;BME280;5880;52.342;9.662;2024-01-15T12:59:57;99025.53;;;7.33;62.54
11648;BME280;5880;52.342;9.662;2024-01-15T13:02:23;99025.53;;;7.33;62.61
11648;BME280;5880;52.342;9.662;2024-01-15T13:04:48;99024.44;;;7.34;62.03
11648;BME280;5880;52.342;9.662;2024-01-15T13:07:14;99021.72;;;7.34;62.11
11648;BME280;5880;52.342;9.662;2024-01-15T13:09:40;99024.44;;;7.34;61.82
11648;BME280;5880;52.342;9.662;2024-01-15T13:12:06;99035.56;;;7.33;61.96
11648;BME280;5880;52.342;9.662;2024-01-15T13:14:32;99024.13;;;7.31;62.03
11648;BME280;5880;52.342;9.662;2024-01-15T13:16:59;99023.03;;;7.32;62.37
11648;BME280;5880;52.342;9.662;2024-01-15T13:19:25;99025.19;;;7.30;62.56
11648;BME280;5880;52.342;9.662;2024-01-15T13:21:50;99022.22;;;7.31;62.27
11648;BME280;5880;52.342;9.662;2024-01-15T13:24:17;99017.84;;;7.30;61.99
11648;BME280;5880;52.342;9.662;2024-01-15T13:26:43;99024.38;;;7.29;61.90